sensor_id;sensor_type;location;lat;lon;timestamp;P1;durP1;ratioP1;P2;durP2;ratioP2
21101;SDS011;10709;49.006;12.100;2023-05-07T00:00:14;5.40;;;3.80;;
21101;SDS011;10709;49.006;12.100;2023-05-07T00:02:42;4.30;;;3.50;;
21101;SDS011;10709;49.006;12.100;2023-05-07T00:05:09;4.43;;;3.80;;
21101;SDS011;10709;49.006;12.100;2023-05-07T00:07:35;5.17;;;3.53;;
21101;SDS011;10709;49.006;12.100;2023-05-07T00:10:03;4.13;;;3.50;;
21101;SDS011;10709;49.006;12.100;2023-05-07T00:12:30;3.83;;;3.50;;
21101;SDS011;10709;49.006;12.100;2023-05-07T00:15:01;6.37;;;4.80;;
21101;SDS011;10709;49.006;12.100;2023-05-07T00:17:29;4.73;;;4.20;;
21101;SDS011;10709;49.006;12.100;2023-05-07T00:19:55;4.63;;;4.10;;
21101;SDS011;10709;49.006;12.100;2023-05-07T00:22:22;5.63;;;4.67;;
21101;SDS011;10709;49.006;12.100;2023-05-07T00:24:49;4.17;;;3.63;;
21101;SDS011;10709;49.006;12.100;2023-05-07T00:27:15;4.63;;;4.10;;
21101;SDS011;10709;49.006;12.100;2023-05-07T00:29:42;4.60;;;3.97;;
21101;SDS011;10709;49.006;12.100;2023-05-07T00:32:08;4.77;;;4.27;;
21101;SDS011;10709;49.006;12.100;2023-05-07T00:34:35;5.40;;;4.20;;
21101;SDS011;10709;49.006;12.100;2023-05-07T00:37:01;6.27;;;3.87;;
21101;SDS011;10709;49.006;12.100;2023-05-07T00:39:31;5.80;;;4.50;;
21101;SDS011;10709;49.006;12.100;2023-05-07T00:41:58;4.47;;;3.87;;
21101;SDS011;10709;49.006;12.100;2023-05-07T00:44:24;5.23;;;3.77;;
21101;SDS011;10709;49.006;12.100;2023-05-07T00:46:51;5.10;;;3.87;;
21101;SDS011;10709;49.006;12.100;2023-05-07T00:49:18;4.33;;;3.93;;
21101;SDS011;10709;49.006;12.100;2023-05-07T00:51:45;6.93;;;3.80;;
21101;SDS011;10709;49.006;12.100;2023-05-07T00:54:13;3.80;;;3.50;;
21101;SDS011;10709;49.006;12.100;2023-05-07T00:56:39;4.70;;;4.30;;
21101;SDS011;10709;49.006;12.100;2023-05-07T00:59:06;5.67;;;4.73;;
21101;SDS011;10709;49.006;12.100;2023-05-07T01:01:33;6.93;;;3.90;;
21101;SDS011;10709;49.006;12.100;2023-05-07T01:03:59;4.70;;;3.60;;
21101;SDS011;10709;49.006;12.100;2023-05-07T01:06:26;4.70;;;4.20;;
21101;SDS011;10709;49.006;12.100;2023-05-07T01:08:55;4.07;;;3.43;;
21101;SDS011;10709;49.006;12.100;2023-05-07T01:11:23;4.60;;;4.10;;
21101;SDS011;10709;49.006;12.100;2023-05-07T01:13:52;6.23;;;4.43;;
21101;SDS011;10709;49.006;12.100;2023-05-07T01:16:18;4.20;;;3.80;;
21101;SDS011;10709;49.006;12.100;2023-05-07T01:18:45;5.10;;;3.93;;
21101;SDS011;10709;49.006;12.100;2023-05-07T01:21:14;4.00;;;3.63;;
21101;SDS011;10709;49.006;12.100;2023-05-07T01:23:44;4.40;;;3.70;;
21101;SDS011;10709;49.006;12.100;2023-05-07T01:26:12;4.50;;;4.10;;
21101;SDS011;10709;49.006;12.100;2023-05-07T01:28:38;5.40;;;4.07;;
21101;SDS011;10709;49.006;12.100;2023-05-07T01:31:05;5.63;;;4.20;;
21101;SDS011;10709;49.006;12.100;2023-05-07T01:33:33;4.30;;;3.90;;
21101;SDS011;10709;49.006;12.100;2023-05-07T01:36:02;5.83;;;4.00;;
21101;SDS011;10709;49.006;12.100;2023-05-07T01:38:32;5.57;;;3.47;;
21101;SDS011;10709;49.006;12.100;2023-05-07T01:40:59;4.17;;;3.77;;
21101;SDS011;10709;49.006;12.100;2023-05-07T01:43:26;4.30;;;3.87;;
21101;SDS011;10709;49.006;12.100;2023-05-07T01:45:52;5.50;;;3.90;;
21101;SDS011;10709;49.006;12.100;2023-05-07T01:48:19;4.70;;;4.07;;
21101;SDS011;10709;49.006;12.100;2023-05-07T01:50:47;5.43;;;4.43;;
21101;SDS011;10709;49.006;12.100;2023-05-07T01:53:14;5.57;;;4.57;;
21101;SDS011;10709;49.006;12.100;2023-05-07T01:55:41;4.13;;;3.70;;
21101;SDS011;10709;49.006;12.100;2023-05-07T01:58:07;4.50;;;4.10;;
21101;SDS011;10709;49.006;12.100;2023-05-07T02:00:34;5.43;;;4.77;;
21101;SDS011;10709;49.006;12.100;2023-05-07T02:03:00;5.73;;;4.83;;
21101;SDS011;10709;49.006;12.100;2023-05-07T02:05:27;5.93;;;4.40;;
21101;SDS011;10709;49.006;12.100;2023-05-07T02:07:53;6.10;;;4.27;;
21101;SDS011;10709;49.006;12.100;2023-05-07T02:10:20;5.67;;;4.70;;
21101;SDS011;10709;49.006;12.100;2023-05-07T02:12:46;6.37;;;5.03;;
21101;SDS011;10709;49.006;12.100;2023-05-07T02:15:13;5.97;;;5.37;;
21101;SDS011;10709;49.006;12.100;2023-05-07T02:17:57;6.63;;;5.57;;
21101;SDS011;10709;49.006;12.100;2023-05-07T02:20:26;5.23;;;4.67;;
21101;SDS011;10709;49.006;12.100;2023-05-07T02:22:52;6.87;;;5.57;;
21101;SDS011;10709;49.006;12.100;2023-05-07T02:25:19;5.60;;;5.10;;
21101;SDS011;10709;49.006;12.100;2023-05-07T02:27:45;7.10;;;6.07;;
21101;SDS011;10709;49.006;12.100;2023-05-07T02:30:12;7.03;;;5.40;;
21101;SDS011;10709;49.006;12.100;2023-05-07T02:32:38;9.30;;;6.30;;
21101;SDS011;10709;49.006;12.100;2023-05-07T02:35:05;6.80;;;5.93;;
21101;SDS011;10709;49.006;12.100;2023-05-07T02:37:31;7.87;;;6.90;;
21101;SDS011;10709;49.006;12.100;2023-05-07T02:39:58;7.53;;;5.87;;
21101;SDS011;10709;49.006;12.100;2023-05-07T02:42:25;7.77;;;5.63;;
21101;SDS011;10709;49.006;12.100;2023-05-07T02:44:51;7.20;;;5.63;;
21101;SDS011;10709;49.006;12.100;2023-05-07T02:47:17;8.27;;;6.00;;
21101;SDS011;10709;49.006;12.100;2023-05-07T02:49:44;6.07;;;5.40;;
21101;SDS011;10709;49.006;12.100;2023-05-07T02:52:10;8.03;;;7.00;;
21101;SDS011;10709;49.006;12.100;2023-05-07T02:54:37;10.07;;;6.67;;
21101;SDS011;10709;49.006;12.100;2023-05-07T02:57:03;8.83;;;6.87;;
21101;SDS011;10709;49.006;12.100;2023-05-07T02:59:30;8.63;;;7.00;;
21101;SDS011;10709;49.006;12.100;2023-05-07T03:01:57;7.13;;;6.33;;
21101;SDS011;10709;49.006;12.100;2023-05-07T03:04:23;9.10;;;7.27;;
21101;SDS011;10709;49.006;12.100;2023-05-07T03:06:50;9.23;;;8.07;;
21101;SDS011;10709;49.006;12.100;2023-05-07T03:09:16;8.87;;;7.30;;
21101;SDS011;10709;49.006;12.100;2023-05-07T03:11:42;9.07;;;7.47;;
21101;SDS011;10709;49.006;12.100;2023-05-07T03:14:09;9.53;;;7.50;;
21101;SDS011;10709;49.006;12.100;2023-05-07T03:16:35;8.40;;;7.47;;
21101;SDS011;10709;49.006;12.100;2023-05-07T03:19:02;10.57;;;7.40;;
21101;SDS011;10709;49.006;12.100;2023-05-07T03:21:29;8.77;;;7.47;;
21101;SDS011;10709;49.006;12.100;2023-05-07T03:23:56;8.97;;;8.00;;
21101;SDS011;10709;49.006;12.100;2023-05-07T03:26:23;8.77;;;7.87;;
21101;SDS011;10709;49.006;12.100;2023-05-07T03:28:49;9.97;;;7.97;;
21101;SDS011;10709;49.006;12.100;2023-05-07T03:31:16;9.20;;;8.20;;
21101;SDS011;10709;49.006;12.100;2023-05-07T03:33:52;8.77;;;7.73;;
21101;SDS011;10709;49.006;12.100;2023-05-07T03:36:23;9.47;;;8.47;;
21101;SDS011;10709;49.006;12.100;2023-05-07T03:38:49;8.97;;;8.07;;
21101;SDS011;10709;49.006;12.100;2023-05-07T03:41:16;8.70;;;7.60;;
21101;SDS011;10709;49.006;12.100;2023-05-07T03:43:43;10.10;;;8.87;;
21101;SDS011;10709;49.006;12.100;2023-05-07T03:46:10;9.40;;;8.43;;
21101;SDS011;10709;49.006;12.100;2023-05-07T03:48:37;11.60;;;9.40;;
21101;SDS011;10709;49.006;12.100;2023-05-07T03:51:03;11.20;;;9.50;;
21101;SDS011;10709;49.006;12.100;2023-05-07T03:53:30;13.53;;;10.20;;
21101;SDS011;10709;49.006;12.100;2023-05-07T03:55:56;9.93;;;8.50;;
21101;SDS011;10709;49.006;12.100;2023-05-07T03:58:23;9.77;;;8.27;;
21101;SDS011;10709;49.006;12.100;2023-05-07T04:00:49;10.20;;;8.37;;
21101;SDS011;10709;49.006;12.100;2023-05-07T04:03:16;11.53;;;9.33;;
21101;SDS011;10709;49.006;12.100;2023-05-07T04:05:43;9.90;;;8.90;;
21101;SDS011;10709;49.006;12.100;2023-05-07T04:08:10;11.10;;;8.27;;
21101;SDS011;10709;49.006;12.100;2023-05-07T04:10:37;9.20;;;8.17;;
21101;SDS011;10709;49.006;12.100;2023-05-07T04:13:03;9.90;;;8.93;;
21101;SDS011;10709;49.006;12.100;2023-05-07T04:15:30;8.20;;;7.40;;
21101;SDS011;10709;49.006;12.100;2023-05-07T04:17:56;7.90;;;7.17;;
21101;SDS011;10709;49.006;12.100;2023-05-07T04:20:23;9.07;;;7.30;;
21101;SDS011;10709;49.006;12.100;2023-05-07T04:22:50;8.77;;;7.80;;
21101;SDS011;10709;49.006;12.100;2023-05-07T04:25:16;8.50;;;7.60;;
21101;SDS011;10709;49.006;12.100;2023-05-07T04:27:43;9.10;;;7.67;;
21101;SDS011;10709;49.006;12.100;2023-05-07T04:30:09;10.60;;;8.67;;
21101;SDS011;10709;49.006;12.100;2023-05-07T04:32:36;9.17;;;8.27;;
21101;SDS011;10709;49.006;12.100;2023-05-07T04:35:03;9.20;;;8.27;;
21101;SDS011;10709;49.006;12.100;2023-05-07T04:37:31;10.13;;;8.27;;
21101;SDS011;10709;49.006;12.100;2023-05-07T04:39:58;9.17;;;8.30;;
21101;SDS011;10709;49.006;12.100;2023-05-07T04:42:24;10.00;;;8.67;;
21101;SDS011;10709;49.006;12.100;2023-05-07T04:44:52;8.53;;;7.53;;
21101;SDS011;10709;49.006;12.100;2023-05-07T04:47:19;10.40;;;7.77;;
21101;SDS011;10709;49.006;12.100;2023-05-07T04:49:46;9.70;;;8.70;;
21101;SDS011;10709;49.006;12.100;2023-05-07T04:52:12;8.70;;;7.77;;
21101;SDS011;10709;49.006;12.100;2023-05-07T04:54:39;9.17;;;8.20;;
21101;SDS011;10709;49.006;12.100;2023-05-07T04:57:05;11.87;;;9.93;;
21101;SDS011;10709;49.006;12.100;2023-05-07T04:59:32;10.20;;;9.10;;
21101;SDS011;10709;49.006;12.100;2023-05-07T05:01:59;11.27;;;8.80;;
21101;SDS011;10709;49.006;12.100;2023-05-07T05:04:26;10.77;;;8.50;;
21101;SDS011;10709;49.006;12.100;2023-05-07T05:06:52;9.60;;;8.13;;
21101;SDS011;10709;49.006;12.100;2023-05-07T05:09:19;9.63;;;8.63;;
21101;SDS011;10709;49.006;12.100;2023-05-07T05:11:45;10.90;;;8.67;;
21101;SDS011;10709;49.006;12.100;2023-05-07T05:14:12;11.87;;;9.33;;
21101;SDS011;10709;49.006;12.100;2023-05-07T05:16:38;13.03;;;10.20;;
21101;SDS011;10709;49.006;12.100;2023-05-07T05:19:05;10.87;;;9.43;;
21101;SDS011;10709;49.006;12.100;2023-05-07T05:21:31;10.90;;;9.73;;
21101;SDS011;10709;49.006;12.100;2023-05-07T05:23:58;10.90;;;9.70;;
21101;SDS011;10709;49.006;12.100;2023-05-07T05:26:24;13.67;;;10.93;;
21101;SDS011;10709;49.006;12.100;2023-05-07T05:28:51;13.77;;;10.13;;
21101;SDS011;10709;49.006;12.100;2023-05-07T05:31:18;11.37;;;9.73;;
21101;SDS011;10709;49.006;12.100;2023-05-07T05:33:44;12.93;;;10.27;;
21101;SDS011;10709;49.006;12.100;2023-05-07T05:36:11;10.83;;;9.70;;
21101;SDS011;10709;49.006;12.100;2023-05-07T05:38:39;13.20;;;11.10;;
21101;SDS011;10709;49.006;12.100;2023-05-07T05:41:06;12.33;;;10.13;;
21101;SDS011;10709;49.006;12.100;2023-05-07T05:43:32;11.60;;;10.40;;
21101;SDS011;10709;49.006;12.100;2023-05-07T05:45:59;12.27;;;10.97;;
21101;SDS011;10709;49.006;12.100;2023-05-07T05:48:28;11.00;;;9.80;;
21101;SDS011;10709;49.006;12.100;2023-05-07T05:50:55;12.33;;;9.80;;
21101;SDS011;10709;49.006;12.100;2023-05-07T05:53:21;11.43;;;10.33;;
21101;SDS011;10709;49.006;12.100;2023-05-07T05:55:48;11.17;;;9.90;;
21101;SDS011;10709;49.006;12.100;2023-05-07T05:58:14;11.73;;;8.43;;
21101;SDS011;10709;49.006;12.100;2023-05-07T06:00:41;10.47;;;9.47;;
21101;SDS011;10709;49.006;12.100;2023-05-07T06:03:08;11.73;;;9.53;;
21101;SDS011;10709;49.006;12.100;2023-05-07T06:05:34;11.43;;;9.43;;
21101;SDS011;10709;49.006;12.100;2023-05-07T06:08:01;11.60;;;9.97;;
21101;SDS011;10709;49.006;12.100;2023-05-07T06:10:27;10.60;;;9.50;;
21101;SDS011;10709;49.006;12.100;2023-05-07T06:12:54;9.97;;;8.87;;
21101;SDS011;10709;49.006;12.100;2023-05-07T06:15:20;9.80;;;8.80;;
21101;SDS011;10709;49.006;12.100;2023-05-07T06:17:47;11.33;;;9.50;;
21101;SDS011;10709;49.006;12.100;2023-05-07T06:20:13;11.23;;;8.53;;
21101;SDS011;10709;49.006;12.100;2023-05-07T06:22:40;8.33;;;7.40;;
21101;SDS011;10709;49.006;12.100;2023-05-07T06:25:06;10.17;;;8.23;;
21101;SDS011;10709;49.006;12.100;2023-05-07T06:27:33;8.80;;;7.80;;
21101;SDS011;10709;49.006;12.100;2023-05-07T06:29:59;9.03;;;8.13;;
21101;SDS011;10709;49.006;12.100;2023-05-07T06:32:26;11.03;;;8.63;;
21101;SDS011;10709;49.006;12.100;2023-05-07T06:34:52;9.33;;;7.60;;
21101;SDS011;10709;49.006;12.100;2023-05-07T06:37:19;8.33;;;7.53;;
21101;SDS011;10709;49.006;12.100;2023-05-07T06:39:46;8.38;;;7.57;;
21101;SDS011;10709;49.006;12.100;2023-05-07T06:42:12;9.25;;;8.35;;
21101;SDS011;10709;49.006;12.100;2023-05-07T06:44:39;8.15;;;7.18;;
21101;SDS011;10709;49.006;12.100;2023-05-07T06:47:05;9.10;;;8.20;;
21101;SDS011;10709;49.006;12.100;2023-05-07T06:49:32;8.63;;;7.07;;
21101;SDS011;10709;49.006;12.100;2023-05-07T06:51:59;7.85;;;7.05;;
21101;SDS011;10709;49.006;12.100;2023-05-07T06:54:25;12.05;;;7.53;;
21101;SDS011;10709;49.006;12.100;2023-05-07T06:56:52;10.18;;;7.22;;
21101;SDS011;10709;49.006;12.100;2023-05-07T06:59:18;8.55;;;7.30;;
21101;SDS011;10709;49.006;12.100;2023-05-07T07:01:45;9.38;;;8.25;;
21101;SDS011;10709;49.006;12.100;2023-05-07T07:04:12;8.80;;;7.03;;
21101;SDS011;10709;49.006;12.100;2023-05-07T07:06:38;10.02;;;8.88;;
21101;SDS011;10709;49.006;12.100;2023-05-07T07:09:05;8.13;;;7.32;;
21101;SDS011;10709;49.006;12.100;2023-05-07T07:11:31;9.20;;;7.20;;
21101;SDS011;10709;49.006;12.100;2023-05-07T07:13:57;8.55;;;7.47;;
21101;SDS011;10709;49.006;12.100;2023-05-07T07:16:25;7.85;;;7.05;;
21101;SDS011;10709;49.006;12.100;2023-05-07T07:18:51;8.18;;;6.50;;
21101;SDS011;10709;49.006;12.100;2023-05-07T07:21:18;7.47;;;6.78;;
21101;SDS011;10709;49.006;12.100;2023-05-07T07:23:44;8.07;;;7.28;;
21101;SDS011;10709;49.006;12.100;2023-05-07T07:26:11;7.80;;;7.00;;
21101;SDS011;10709;49.006;12.100;2023-05-07T07:28:43;7.60;;;6.85;;
21101;SDS011;10709;49.006;12.100;2023-05-07T07:31:11;9.10;;;7.70;;
21101;SDS011;10709;49.006;12.100;2023-05-07T07:33:37;9.70;;;7.35;;
21101;SDS011;10709;49.006;12.100;2023-05-07T07:36:05;7.32;;;6.63;;
21101;SDS011;10709;49.006;12.100;2023-05-07T07:38:33;7.68;;;6.88;;
21101;SDS011;10709;49.006;12.100;2023-05-07T07:41:00;7.28;;;6.57;;
21101;SDS011;10709;49.006;12.100;2023-05-07T07:43:27;7.50;;;6.70;;
21101;SDS011;10709;49.006;12.100;2023-05-07T07:45:53;8.77;;;7.65;;
21101;SDS011;10709;49.006;12.100;2023-05-07T07:48:20;9.93;;;8.27;;
21101;SDS011;10709;49.006;12.100;2023-05-07T07:50:48;7.10;;;6.40;;
21101;SDS011;10709;49.006;12.100;2023-05-07T07:53:16;6.78;;;5.88;;
21101;SDS011;10709;49.006;12.100;2023-05-07T07:55:43;7.18;;;6.47;;
21101;SDS011;10709;49.006;12.100;2023-05-07T07:58:10;9.93;;;7.40;;
21101;SDS011;10709;49.006;12.100;2023-05-07T08:00:36;7.68;;;6.95;;
21101;SDS011;10709;49.006;12.100;2023-05-07T08:03:02;7.95;;;6.80;;
21101;SDS011;10709;49.006;12.100;2023-05-07T08:05:29;7.38;;;6.70;;
21101;SDS011;10709;49.006;12.100;2023-05-07T08:07:56;8.18;;;6.95;;
21101;SDS011;10709;49.006;12.100;2023-05-07T08:10:22;7.38;;;6.68;;
21101;SDS011;10709;49.006;12.100;2023-05-07T08:12:49;9.98;;;5.82;;
21101;SDS011;10709;49.006;12.100;2023-05-07T08:15:16;5.70;;;5.10;;
21101;SDS011;10709;49.006;12.100;2023-05-07T08:17:43;6.70;;;5.78;;
21101;SDS011;10709;49.006;12.100;2023-05-07T08:20:09;8.00;;;5.90;;
21101;SDS011;10709;49.006;12.100;2023-05-07T08:22:36;5.30;;;4.10;;
21101;SDS011;10709;49.006;12.100;2023-05-07T08:25:03;4.55;;;3.60;;
21101;SDS011;10709;49.006;12.100;2023-05-07T08:27:30;5.32;;;3.47;;
21101;SDS011;10709;49.006;12.100;2023-05-07T08:29:56;4.07;;;3.30;;
21101;SDS011;10709;49.006;12.100;2023-05-07T08:32:23;4.82;;;3.60;;
21101;SDS011;10709;49.006;12.100;2023-05-07T08:34:49;4.75;;;3.85;;
21101;SDS011;10709;49.006;12.100;2023-05-07T08:37:16;3.63;;;3.17;;
21101;SDS011;10709;49.006;12.100;2023-05-07T08:39:42;4.70;;;4.30;;
21101;SDS011;10709;49.006;12.100;2023-05-07T08:42:09;7.10;;;4.68;;
21101;SDS011;10709;49.006;12.100;2023-05-07T08:44:36;4.82;;;4.43;;
21101;SDS011;10709;49.006;12.100;2023-05-07T08:47:06;5.30;;;4.57;;
21101;SDS011;10709;49.006;12.100;2023-05-07T08:49:33;5.45;;;4.00;;
21101;SDS011;10709;49.006;12.100;2023-05-07T08:52:01;4.57;;;4.00;;
21101;SDS011;10709;49.006;12.100;2023-05-07T08:54:27;3.70;;;3.40;;
21101;SDS011;10709;49.006;12.100;2023-05-07T08:56:55;4.22;;;3.83;;
21101;SDS011;10709;49.006;12.100;2023-05-07T08:59:21;4.40;;;3.72;;
21101;SDS011;10709;49.006;12.100;2023-05-07T09:01:48;4.10;;;3.70;;
21101;SDS011;10709;49.006;12.100;2023-05-07T09:04:15;4.43;;;3.90;;
21101;SDS011;10709;49.006;12.100;2023-05-07T09:06:42;3.55;;;3.22;;
21101;SDS011;10709;49.006;12.100;2023-05-07T09:09:08;4.00;;;3.42;;
21101;SDS011;10709;49.006;12.100;2023-05-07T09:11:35;5.57;;;3.80;;
21101;SDS011;10709;49.006;12.100;2023-05-07T09:14:01;3.45;;;3.15;;
21101;SDS011;10709;49.006;12.100;2023-05-07T09:16:29;4.82;;;4.30;;
21101;SDS011;10709;49.006;12.100;2023-05-07T09:18:57;4.22;;;3.83;;
21101;SDS011;10709;49.006;12.100;2023-05-07T09:21:25;3.70;;;3.40;;
21101;SDS011;10709;49.006;12.100;2023-05-07T09:23:52;6.60;;;3.70;;
21101;SDS011;10709;49.006;12.100;2023-05-07T09:26:23;4.57;;;3.63;;
21101;SDS011;10709;49.006;12.100;2023-05-07T09:28:50;5.53;;;3.90;;
21101;SDS011;10709;49.006;12.100;2023-05-07T09:31:17;4.13;;;3.72;;
21101;SDS011;10709;49.006;12.100;2023-05-07T09:33:46;5.43;;;3.90;;
21101;SDS011;10709;49.006;12.100;2023-05-07T09:36:13;4.88;;;3.50;;
21101;SDS011;10709;49.006;12.100;2023-05-07T09:38:40;4.15;;;3.75;;
21101;SDS011;10709;49.006;12.100;2023-05-07T09:41:10;4.13;;;3.72;;
21101;SDS011;10709;49.006;12.100;2023-05-07T09:43:38;4.97;;;3.90;;
21101;SDS011;10709;49.006;12.100;2023-05-07T09:46:06;3.80;;;3.40;;
21101;SDS011;10709;49.006;12.100;2023-05-07T09:48:43;4.13;;;3.70;;
21101;SDS011;10709;49.006;12.100;2023-05-07T09:51:13;5.10;;;3.97;;
21101;SDS011;10709;49.006;12.100;2023-05-07T09:53:47;4.93;;;4.38;;
21101;SDS011;10709;49.006;12.100;2023-05-07T09:56:14;8.32;;;4.45;;
21101;SDS011;10709;49.006;12.100;2023-05-07T09:58:42;5.85;;;4.50;;
21101;SDS011;10709;49.006;12.100;2023-05-07T10:01:10;5.50;;;4.97;;
21101;SDS011;10709;49.006;12.100;2023-05-07T10:03:41;6.95;;;5.30;;
21101;SDS011;10709;49.006;12.100;2023-05-07T10:06:09;6.53;;;5.47;;
21101;SDS011;10709;49.006;12.100;2023-05-07T10:08:36;4.90;;;4.50;;
21101;SDS011;10709;49.006;12.100;2023-05-07T10:11:04;7.00;;;5.28;;
21101;SDS011;10709;49.006;12.100;2023-05-07T10:13:32;6.60;;;5.88;;
21101;SDS011;10709;49.006;12.100;2023-05-07T10:16:02;7.75;;;6.25;;
21101;SDS011;10709;49.006;12.100;2023-05-07T10:18:33;5.32;;;4.82;;
21101;SDS011;10709;49.006;12.100;2023-05-07T10:21:02;6.53;;;5.88;;
21101;SDS011;10709;49.006;12.100;2023-05-07T10:23:34;7.63;;;6.70;;
21101;SDS011;10709;49.006;12.100;2023-05-07T10:26:02;9.50;;;7.63;;
21101;SDS011;10709;49.006;12.100;2023-05-07T10:28:31;7.70;;;6.72;;
21101;SDS011;10709;49.006;12.100;2023-05-07T10:33:49;8.40;;;7.60;;
21101;SDS011;10709;49.006;12.100;2023-05-07T10:36:17;7.75;;;6.82;;
21101;SDS011;10709;49.006;12.100;2023-05-07T10:38:44;8.38;;;6.82;;
21101;SDS011;10709;49.006;12.100;2023-05-07T10:41:12;8.05;;;6.75;;
21101;SDS011;10709;49.006;12.100;2023-05-07T10:43:39;7.90;;;7.03;;
21101;SDS011;10709;49.006;12.100;2023-05-07T10:51:27;6.47;;;5.78;;
21101;SDS011;10709;49.006;12.100;2023-05-07T10:54:17;10.02;;;6.88;;
21101;SDS011;10709;49.006;12.100;2023-05-07T10:56:41;6.40;;;5.68;;
21101;SDS011;10709;49.006;12.100;2023-05-07T11:01:56;5.40;;;4.68;;
21101;SDS011;10709;49.006;12.100;2023-05-07T11:04:24;5.32;;;4.43;;
21101;SDS011;10709;49.006;12.100;2023-05-07T11:15:05;6.05;;;3.78;;
21101;SDS011;10709;49.006;12.100;2023-05-07T11:17:32;4.25;;;3.85;;
21101;SDS011;10709;49.006;12.100;2023-05-07T11:20:02;5.40;;;4.13;;
21101;SDS011;10709;49.006;12.100;2023-05-07T11:24:59;4.85;;;4.32;;
21101;SDS011;10709;49.006;12.100;2023-05-07T11:27:26;5.25;;;4.18;;
21101;SDS011;10709;49.006;12.100;2023-05-07T11:29:53;6.43;;;4.00;;
21101;SDS011;10709;49.006;12.100;2023-05-07T11:32:37;4.80;;;4.20;;
21101;SDS011;10709;49.006;12.100;2023-05-07T11:35:04;3.80;;;3.40;;
21101;SDS011;10709;49.006;12.100;2023-05-07T11:37:32;4.93;;;3.72;;
21101;SDS011;10709;49.006;12.100;2023-05-07T11:40:04;6.13;;;3.45;;
21101;SDS011;10709;49.006;12.100;2023-05-07T11:42:48;4.57;;;3.63;;
21101;SDS011;10709;49.006;12.100;2023-05-07T11:45:22;3.40;;;3.10;;
21101;SDS011;10709;49.006;12.100;2023-05-07T11:47:51;3.17;;;2.55;;
21101;SDS011;10709;49.006;12.100;2023-05-07T11:50:17;8.43;;;6.07;;
21101;SDS011;10709;49.006;12.100;2023-05-07T11:52:50;6.57;;;5.90;;
21101;SDS011;10709;49.006;12.100;2023-05-07T11:55:18;7.53;;;5.88;;
21101;SDS011;10709;49.006;12.100;2023-05-07T11:57:45;7.88;;;5.97;;
21101;SDS011;10709;49.006;12.100;2023-05-07T12:00:11;6.20;;;5.60;;
21101;SDS011;10709;49.006;12.100;2023-05-07T12:02:41;6.20;;;5.60;;
21101;SDS011;10709;49.006;12.100;2023-05-07T12:05:08;7.50;;;5.20;;
21101;SDS011;10709;49.006;12.100;2023-05-07T12:07:36;7.47;;;5.50;;
21101;SDS011;10709;49.006;12.100;2023-05-07T12:10:06;7.90;;;5.25;;
21101;SDS011;10709;49.006;12.100;2023-05-07T12:12:45;5.88;;;5.00;;
21101;SDS011;10709;49.006;12.100;2023-05-07T12:15:15;6.20;;;5.30;;
21101;SDS011;10709;49.006;12.100;2023-05-07T12:17:42;5.88;;;4.82;;
21101;SDS011;10709;49.006;12.100;2023-05-07T12:20:09;5.95;;;4.82;;
21101;SDS011;10709;49.006;12.100;2023-05-07T12:22:36;7.65;;;4.80;;
21101;SDS011;10709;49.006;12.100;2023-05-07T12:25:03;6.38;;;4.45;;
21101;SDS011;10709;49.006;12.100;2023-05-07T12:27:29;5.38;;;4.22;;
21101;SDS011;10709;49.006;12.100;2023-05-07T12:29:57;4.30;;;3.90;;
21101;SDS011;10709;49.006;12.100;2023-05-07T12:32:24;5.45;;;4.10;;
21101;SDS011;10709;49.006;12.100;2023-05-07T12:34:50;4.63;;;3.58;;
21101;SDS011;10709;49.006;12.100;2023-05-07T12:37:22;4.38;;;3.67;;
21101;SDS011;10709;49.006;12.100;2023-05-07T12:39:50;4.07;;;3.63;;
21101;SDS011;10709;49.006;12.100;2023-05-07T12:42:35;5.20;;;4.25;;
21101;SDS011;10709;49.006;12.100;2023-05-07T12:45:12;4.70;;;4.20;;
21101;SDS011;10709;49.006;12.100;2023-05-07T12:47:45;8.43;;;4.45;;
21101;SDS011;10709;49.006;12.100;2023-05-07T12:50:13;5.10;;;4.45;;
21101;SDS011;10709;49.006;12.100;2023-05-07T12:52:40;4.85;;;4.22;;
21101;SDS011;10709;49.006;12.100;2023-05-07T12:55:07;5.43;;;4.45;;
21101;SDS011;10709;49.006;12.100;2023-05-07T12:57:38;4.40;;;4.00;;
21101;SDS011;10709;49.006;12.100;2023-05-07T13:00:06;4.13;;;3.72;;
21101;SDS011;10709;49.006;12.100;2023-05-07T13:02:33;9.32;;;4.05;;
21101;SDS011;10709;49.006;12.100;2023-05-07T13:05:01;4.03;;;3.60;;
21101;SDS011;10709;49.006;12.100;2023-05-07T13:07:27;4.00;;;3.60;;
21101;SDS011;10709;49.006;12.100;2023-05-07T13:09:55;4.65;;;3.85;;
21101;SDS011;10709;49.006;12.100;2023-05-07T13:12:22;5.25;;;4.32;;
21101;SDS011;10709;49.006;12.100;2023-05-07T13:14:49;5.15;;;3.92;;
21101;SDS011;10709;49.006;12.100;2023-05-07T13:17:15;5.32;;;3.80;;
21101;SDS011;10709;49.006;12.100;2023-05-07T13:19:42;4.43;;;3.70;;
21101;SDS011;10709;49.006;12.100;2023-05-07T13:22:08;3.88;;;3.53;;
21101;SDS011;10709;49.006;12.100;2023-05-07T13:24:34;4.95;;;3.95;;
21101;SDS011;10709;49.006;12.100;2023-05-07T13:27:01;5.43;;;3.80;;
21101;SDS011;10709;49.006;12.100;2023-05-07T13:29:27;3.92;;;3.40;;
21101;SDS011;10709;49.006;12.100;2023-05-07T13:31:58;4.22;;;3.83;;
21101;SDS011;10709;49.006;12.100;2023-05-07T13:34:25;4.13;;;3.25;;
21101;SDS011;10709;49.006;12.100;2023-05-07T13:36:51;5.15;;;3.47;;
21101;SDS011;10709;49.006;12.100;2023-05-07T13:39:18;4.55;;;3.30;;
21101;SDS011;10709;49.006;12.100;2023-05-07T13:41:45;3.97;;;3.60;;
21101;SDS011;10709;49.006;12.100;2023-05-07T13:44:11;3.55;;;3.22;;
21101;SDS011;10709;49.006;12.100;2023-05-07T13:46:37;3.90;;;3.50;;
21101;SDS011;10709;49.006;12.100;2023-05-07T13:49:04;3.97;;;3.35;;
21101;SDS011;10709;49.006;12.100;2023-05-07T13:51:30;3.58;;;3.28;;
21101;SDS011;10709;49.006;12.100;2023-05-07T13:53:57;3.90;;;3.50;;
21101;SDS011;10709;49.006;12.100;2023-05-07T13:56:24;3.42;;;3.13;;
21101;SDS011;10709;49.006;12.100;2023-05-07T13:58:51;4.45;;;3.30;;
21101;SDS011;10709;49.006;12.100;2023-05-07T14:01:26;3.40;;;3.10;;
21101;SDS011;10709;49.006;12.100;2023-05-07T14:03:53;3.40;;;3.10;;
21101;SDS011;10709;49.006;12.100;2023-05-07T14:06:19;3.38;;;3.08;;
21101;SDS011;10709;49.006;12.100;2023-05-07T14:08:46;3.80;;;3.50;;
21101;SDS011;10709;49.006;12.100;2023-05-07T14:11:12;3.42;;;3.00;;
21101;SDS011;10709;49.006;12.100;2023-05-07T14:13:39;3.55;;;3.25;;
21101;SDS011;10709;49.006;12.100;2023-05-07T14:16:05;3.72;;;3.30;;
21101;SDS011;10709;49.006;12.100;2023-05-07T14:18:32;3.33;;;3.00;;
21101;SDS011;10709;49.006;12.100;2023-05-07T14:21:00;4.70;;;3.30;;
21101;SDS011;10709;49.006;12.100;2023-05-07T14:23:26;3.40;;;3.10;;
21101;SDS011;10709;49.006;12.100;2023-05-07T14:25:53;4.40;;;3.10;;
21101;SDS011;10709;49.006;12.100;2023-05-07T14:28:20;4.95;;;3.25;;
21101;SDS011;10709;49.006;12.100;2023-05-07T14:30:47;5.20;;;3.72;;
21101;SDS011;10709;49.006;12.100;2023-05-07T14:33:13;4.38;;;3.80;;
21101;SDS011;10709;49.006;12.100;2023-05-07T14:35:40;3.92;;;3.53;;
21101;SDS011;10709;49.006;12.100;2023-05-07T14:38:06;5.32;;;4.00;;
21101;SDS011;10709;49.006;12.100;2023-05-07T14:40:33;5.38;;;4.05;;
21101;SDS011;10709;49.006;12.100;2023-05-07T14:42:59;5.38;;;3.63;;
21101;SDS011;10709;49.006;12.100;2023-05-07T14:45:26;6.07;;;3.80;;
21101;SDS011;10709;49.006;12.100;2023-05-07T14:47:52;3.80;;;3.35;;
21101;SDS011;10709;49.006;12.100;2023-05-07T14:50:19;5.72;;;3.78;;
21101;SDS011;10709;49.006;12.100;2023-05-07T14:52:45;3.83;;;3.25;;
21101;SDS011;10709;49.006;12.100;2023-05-07T14:55:12;6.70;;;3.70;;